createdAt,value
2022-10-21T00:01:42.508Z,101825.41
2022-10-21T00:04:09.502Z,101826.72
2022-10-21T00:06:36.356Z,101831.00
2022-10-21T00:09:03.348Z,101834.97
2022-10-21T00:11:30.230Z,101832.22
2022-10-21T00:13:57.073Z,101831.94
2022-10-21T00:16:23.995Z,101821.88
2022-10-21T00:18:50.920Z,101829.66
2022-10-21T00:21:22.810Z,101827.03
2022-10-21T00:23:50.305Z,101821.91
2022-10-21T00:26:18.813Z,101823.06
2022-10-21T00:28:45.672Z,101818.19
2022-10-21T00:31:14.377Z,101820.13
2022-10-21T00:33:42.155Z,101824.31
2022-10-21T00:36:15.014Z,101823.56
2022-10-21T00:38:44.907Z,101827.22
2022-10-21T00:41:13.391Z,101823.31
2022-10-21T00:44:13.678Z,101819.84
2022-10-21T00:46:54.010Z,101821.44
2022-10-21T00:49:53.389Z,101819.97
2022-10-21T00:52:22.401Z,101824.19
2022-10-21T00:54:52.961Z,101824.38
2022-10-21T00:57:21.758Z,101818.41
2022-10-21T00:59:53.814Z,101817.44
2022-10-21T01:02:21.760Z,101827.78
2022-10-21T01:04:57.493Z,101817.13
2022-10-21T01:07:24.882Z,101815.78
2022-10-21T01:09:51.807Z,101817.38
2022-10-21T01:12:27.760Z,101808.44
2022-10-21T01:17:44.086Z,101804.09
2022-10-21T01:20:31.611Z,101801.16
2022-10-21T01:23:35.588Z,101808.66
2022-10-21T01:26:21.092Z,101809.88
2022-10-21T01:29:12.230Z,101808.06
2022-10-21T01:31:42.448Z,101814.09
2022-10-21T01:34:27.161Z,101808.06
2022-10-21T01:36:58.578Z,101818.47
2022-10-21T01:39:57.619Z,101813.31
2022-10-21T01:42:42.780Z,101808.00
2022-10-21T01:45:35.873Z,101810.50
2022-10-21T01:48:16.017Z,101813.19
2022-10-21T01:50:49.386Z,101806.94
2022-10-21T01:53:17.627Z,101812.50
2022-10-21T01:55:46.017Z,101814.41
2022-10-21T01:58:19.579Z,101816.16
2022-10-21T02:00:48.536Z,101819.38
2022-10-21T02:03:21.053Z,101831.25
2022-10-21T02:05:47.917Z,101831.97
2022-10-21T02:08:15.111Z,101824.47
2022-10-21T02:10:50.878Z,101829.97
2022-10-21T02:13:25.288Z,101835.19
2022-10-21T02:15:59.941Z,101828.75
2022-10-21T02:18:27.205Z,101838.66
2022-10-21T02:21:05.238Z,101830.25
2022-10-21T02:23:42.994Z,101828.31
2022-10-21T02:26:10.467Z,101833.28
2022-10-21T02:31:22.553Z,101836.09
2022-10-21T02:34:30.322Z,101836.59
2022-10-21T02:37:26.157Z,101833.81
2022-10-21T02:40:18.994Z,101835.47
2022-10-21T02:42:51.563Z,101838.03
2022-10-21T02:45:18.712Z,101843.22
2022-10-21T02:47:48.431Z,101832.59
2022-10-21T02:50:15.457Z,101840.72
2022-10-21T02:52:42.380Z,101838.47
2022-10-21T02:55:09.635Z,101843.66
2022-10-21T02:57:36.900Z,101847.38
2022-10-21T03:00:06.143Z,101851.50
2022-10-21T03:02:33.221Z,101854.50
2022-10-21T03:05:00.105Z,101857.97
2022-10-21T03:07:26.956Z,101859.06
2022-10-21T03:09:53.950Z,101857.38
2022-10-21T03:12:20.897Z,101854.34
2022-10-21T03:14:47.762Z,101843.84
2022-10-21T03:17:14.610Z,101852.63
2022-10-21T03:19:41.452Z,101846.88
2022-10-21T03:22:08.289Z,101857.66
2022-10-21T03:24:35.146Z,101852.13
2022-10-21T03:27:02.889Z,101847.78
2022-10-21T03:29:29.805Z,101857.66
2022-10-21T03:31:56.673Z,101852.28
2022-10-21T03:34:23.586Z,101854.59
2022-10-21T03:36:50.432Z,101853.31
2022-10-21T03:39:17.303Z,101854.19
2022-10-21T03:41:44.164Z,101854.19
2022-10-21T03:44:11.072Z,101861.53
2022-10-21T03:46:38.657Z,101855.56
2022-10-21T03:49:09.079Z,101859.44
2022-10-21T03:51:39.013Z,101859.94
2022-10-21T03:54:06.012Z,101850.13
2022-10-21T03:56:33.038Z,101855.69
2022-10-21T03:59:00.035Z,101847.38
2022-10-21T04:01:27.599Z,101837.34
2022-10-21T04:03:54.622Z,101864.31
2022-10-21T04:06:21.587Z,101863.28
2022-10-21T04:08:48.501Z,101861.66
2022-10-21T04:11:15.565Z,101864.72
2022-10-21T04:13:42.540Z,101862.97
2022-10-21T04:16:14.992Z,101865.81
2022-10-21T04:18:41.859Z,101867.00
2022-10-21T04:21:08.988Z,101867.84
2022-10-21T04:23:36.523Z,101871.91
2022-10-21T04:26:04.583Z,101870.16
2022-10-21T04:28:31.749Z,101872.38
2022-10-21T04:30:58.738Z,101878.41
2022-10-21T04:33:25.818Z,101874.88
2022-10-21T04:35:56.064Z,101879.16
2022-10-21T04:38:23.629Z,101876.06
2022-10-21T04:41:01.554Z,101879.16
2022-10-21T04:43:29.244Z,101880.31
2022-10-21T04:45:56.628Z,101875.50
2022-10-21T04:48:24.266Z,101877.50
2022-10-21T04:50:53.037Z,101878.19
2022-10-21T04:53:21.047Z,101877.34
2022-10-21T04:55:54.758Z,101878.84
2022-10-21T04:58:22.432Z,101894.03
2022-10-21T05:00:51.332Z,101889.06
2022-10-21T05:03:19.375Z,101883.84
2022-10-21T05:05:50.389Z,101881.97
2022-10-21T05:08:17.324Z,101890.53
2022-10-21T05:10:44.345Z,101893.78
2022-10-21T05:13:11.484Z,101891.91
2022-10-21T05:15:38.492Z,101894.75
2022-10-21T05:18:05.455Z,101895.25
2022-10-21T05:20:32.411Z,101895.25
2022-10-21T05:22:59.352Z,101908.41
2022-10-21T05:25:28.177Z,101903.25
2022-10-21T05:27:57.377Z,101897.00
2022-10-21T05:30:24.323Z,101901.03
2022-10-21T05:32:51.226Z,101900.59
2022-10-21T05:35:18.226Z,101899.09
2022-10-21T05:37:45.093Z,101905.13
2022-10-21T05:40:12.409Z,101909.47
2022-10-21T05:42:39.592Z,101904.16
2022-10-21T05:45:07.421Z,101915.56
2022-10-21T05:47:34.321Z,101914.06
2022-10-21T05:50:01.194Z,101920.13
2022-10-21T05:52:28.105Z,101925.88
2022-10-21T05:54:55.027Z,101924.78
2022-10-21T05:57:21.856Z,101926.06
2022-10-21T05:59:48.843Z,101927.00
2022-10-21T06:02:15.867Z,101927.75
2022-10-21T06:04:42.784Z,101935.03
2022-10-21T06:07:10.085Z,101937.13
2022-10-21T06:09:37.985Z,101934.75
2022-10-21T06:12:05.744Z,101933.16
2022-10-21T06:14:32.596Z,101941.13
2022-10-21T06:22:38.988Z,101940.34
2022-10-21T06:25:06.223Z,101938.81
2022-10-21T06:27:33.120Z,101931.50
2022-10-21T06:30:00.102Z,101926.94
2022-10-21T06:32:27.025Z,101930.97
2022-10-21T06:34:54.442Z,101923.16
2022-10-21T06:37:21.413Z,101925.09
2022-10-21T06:39:48.339Z,101930.16
2022-10-21T06:42:16.045Z,101921.03
2022-10-21T06:44:47.511Z,101929.56
2022-10-21T06:47:14.443Z,101929.50
2022-10-21T06:49:41.393Z,101932.22
2022-10-21T06:52:08.361Z,101919.47
2022-10-21T06:54:35.378Z,101931.44
2022-10-21T06:57:03.377Z,101918.28
2022-10-21T06:59:31.178Z,101928.81
2022-10-21T07:02:00.965Z,101922.56
2022-10-21T07:04:29.414Z,101926.28
2022-10-21T07:06:56.392Z,101919.75
2022-10-21T07:09:23.394Z,101922.97
2022-10-21T07:11:50.279Z,101931.66
2022-10-21T07:14:17.175Z,101927.03
2022-10-21T07:16:44.118Z,101928.72
2022-10-21T07:19:11.127Z,101921.19
2022-10-21T07:21:38.387Z,101924.38
2022-10-21T07:24:05.383Z,101924.00
2022-10-21T07:26:34.376Z,101914.16
2022-10-21T07:29:01.723Z,101915.59
2022-10-21T07:31:31.867Z,101924.78
2022-10-21T07:34:00.624Z,101915.34
2022-10-21T07:36:30.729Z,101915.88
2022-10-21T07:39:01.096Z,101924.28
2022-10-21T07:41:31.917Z,101920.69
2022-10-21T07:43:59.131Z,101922.22
2022-10-21T07:46:26.388Z,101917.88
2022-10-21T07:48:54.049Z,101918.75
2022-10-21T07:53:10.927Z,101929.56
2022-10-21T07:55:39.446Z,101922.94
2022-10-21T07:58:06.352Z,101916.50
2022-10-21T08:00:33.258Z,101915.75
2022-10-21T08:03:00.252Z,101920.63
2022-10-21T08:05:27.416Z,101915.72
2022-10-21T08:07:54.374Z,101908.28
2022-10-21T08:10:21.494Z,101905.91
2022-10-21T08:12:48.530Z,101918.56
2022-10-21T08:15:15.565Z,101913.34
2022-10-21T08:17:42.470Z,101909.88
2022-10-21T08:20:09.875Z,101909.63
2022-10-21T08:22:37.226Z,101900.34
2022-10-21T08:25:04.714Z,101900.91
2022-10-21T08:27:31.798Z,101900.63
2022-10-21T08:29:58.597Z,101905.38
2022-10-21T08:32:25.549Z,101905.75
2022-10-21T08:34:52.462Z,101906.38
2022-10-21T08:37:23.390Z,101901.00
2022-10-21T08:39:52.477Z,101895.50
2022-10-21T08:42:20.285Z,101905.19
2022-10-21T08:44:55.729Z,101901.84
2022-10-21T08:47:45.958Z,101915.41
2022-10-21T08:50:17.210Z,101905.00
2022-10-21T08:52:48.634Z,101902.91
2022-10-21T08:55:33.921Z,101894.97
2022-10-21T08:58:01.707Z,101898.75
2022-10-21T09:00:34.380Z,101903.72
2022-10-21T09:03:54.415Z,101904.41
2022-10-21T09:06:39.579Z,101905.50
2022-10-21T09:09:19.859Z,101892.59
2022-10-21T09:11:56.330Z,101904.94
2022-10-21T09:14:44.450Z,101899.41
2022-10-21T09:18:02.223Z,101900.38
2022-10-21T09:21:05.645Z,101909.22
2022-10-21T09:23:54.587Z,101882.34
2022-10-21T09:26:45.062Z,101894.38
2022-10-21T09:29:27.109Z,101883.72
2022-10-21T09:32:15.537Z,101888.31
2022-10-21T09:35:18.061Z,101885.97
2022-10-21T09:38:06.731Z,101877.81
2022-10-21T09:40:34.134Z,101869.66
2022-10-21T09:43:02.276Z,101872.00
2022-10-21T09:45:36.300Z,101877.16
2022-10-21T09:48:17.993Z,101864.00
2022-10-21T09:51:04.058Z,101871.97
2022-10-21T09:53:43.583Z,101856.34
2022-10-21T09:56:34.076Z,101862.31
2022-10-21T09:59:07.581Z,101864.53
2022-10-21T10:01:36.364Z,101868.34
2022-10-21T10:04:12.510Z,101864.19
2022-10-21T10:06:42.609Z,101863.19
2022-10-21T10:09:17.100Z,101857.78
2022-10-21T10:12:14.225Z,101848.31
2022-10-21T10:14:43.813Z,101850.03
2022-10-21T10:17:29.352Z,101857.88
2022-10-21T10:20:05.832Z,101854.09
2022-10-21T10:22:58.376Z,101839.28
2022-10-21T10:25:30.986Z,101846.44
2022-10-21T10:28:02.119Z,101842.69
2022-10-21T10:30:51.082Z,101843.72
2022-10-21T10:33:25.185Z,101845.69
2022-10-21T10:35:55.399Z,101837.06
2022-10-21T10:38:30.901Z,101836.50
2022-10-21T10:41:07.025Z,101830.56
2022-10-21T10:43:37.381Z,101832.25
2022-10-21T10:46:08.596Z,101820.84
2022-10-21T10:48:38.541Z,101825.97
2022-10-21T10:51:24.255Z,101817.47
2022-10-21T10:54:17.851Z,101826.25
2022-10-21T10:56:50.248Z,101826.38
2022-10-21T10:59:23.205Z,101815.72
2022-10-21T11:02:10.302Z,101813.50
2022-10-21T11:04:58.436Z,101800.50
2022-10-21T11:07:43.642Z,101814.28
2022-10-21T11:10:33.914Z,101817.66
2022-10-21T11:13:16.107Z,101812.88
2022-10-21T11:15:51.935Z,101808.53
2022-10-21T11:18:25.245Z,101811.38
2022-10-21T11:21:15.407Z,101810.53
2022-10-21T11:23:54.399Z,101814.63
2022-10-21T11:26:43.393Z,101809.06
2022-10-21T11:29:39.201Z,101803.06
2022-10-21T11:32:12.575Z,101802.97
2022-10-21T11:35:16.803Z,101794.25
2022-10-21T11:38:20.843Z,101784.53
2022-10-21T11:41:02.068Z,101792.66
2022-10-21T11:43:50.211Z,101790.81
2022-10-21T11:46:32.117Z,101787.44
2022-10-21T11:49:14.064Z,101790.19
2022-10-21T11:52:06.991Z,101787.09
2022-10-21T11:54:59.692Z,101778.28
2022-10-21T11:57:46.450Z,101763.13
2022-10-21T12:00:23.017Z,101767.38
2022-10-21T12:03:36.983Z,101756.09
2022-10-21T12:06:13.217Z,101754.72
2022-10-21T12:08:56.169Z,101763.88
2022-10-21T12:11:39.312Z,101761.44
2022-10-21T12:14:21.326Z,101752.19
2022-10-21T12:16:49.580Z,101759.28
2022-10-21T12:19:16.834Z,101746.28
2022-10-21T12:21:45.985Z,101760.34
2022-10-21T12:24:21.887Z,101751.13
2022-10-21T12:26:53.560Z,101742.56
2022-10-21T12:29:20.344Z,101748.88
2022-10-21T12:31:49.951Z,101743.53
2022-10-21T12:34:17.477Z,101748.38
2022-10-21T12:36:51.037Z,101746.47
2022-10-21T12:39:33.053Z,101753.25
2022-10-21T12:42:17.357Z,101749.47
2022-10-21T12:44:50.086Z,101740.56
2022-10-21T12:47:37.392Z,101743.00
2022-10-21T12:50:19.270Z,101747.50
2022-10-21T12:52:47.499Z,101743.28
2022-10-21T12:55:25.856Z,101748.88
2022-10-21T12:58:03.824Z,101749.25
2022-10-21T13:00:30.719Z,101754.50
2022-10-21T13:03:00.296Z,101751.47
2022-10-21T13:05:39.239Z,101746.59
2022-10-21T13:08:24.223Z,101753.41
2022-10-21T13:11:06.432Z,101758.59
2022-10-21T13:13:37.625Z,101756.94
2022-10-21T13:16:19.952Z,101749.22
2022-10-21T13:18:57.980Z,101752.63
2022-10-21T13:21:34.063Z,101750.22
2022-10-21T13:24:13.124Z,101745.66
2022-10-21T13:27:05.140Z,101750.03
2022-10-21T13:29:38.039Z,101749.94
2022-10-21T13:32:14.037Z,101758.16
2022-10-21T13:35:01.269Z,101768.81
2022-10-21T13:37:37.799Z,101759.47
2022-10-21T13:40:31.775Z,101757.69
2022-10-21T13:43:03.219Z,101746.72
2022-10-21T13:45:30.169Z,101744.22
2022-10-21T13:48:03.189Z,101746.84
2022-10-21T13:50:33.788Z,101744.28
2022-10-21T13:53:05.562Z,101753.03
2022-10-21T13:55:32.471Z,101744.34
2022-10-21T13:57:59.437Z,101742.63
2022-10-21T14:00:30.473Z,101744.41
2022-10-21T14:03:03.319Z,101741.75
2022-10-21T14:05:47.077Z,101739.09
2022-10-21T14:08:42.298Z,101742.63
2022-10-21T14:11:24.569Z,101746.19
2022-10-21T14:13:51.811Z,101752.38
2022-10-21T14:16:32.201Z,101751.41
2022-10-21T14:19:01.392Z,101750.59
2022-10-21T14:21:31.421Z,101740.94
2022-10-21T14:23:58.677Z,101740.94
2022-10-21T14:26:31.160Z,101741.84
2022-10-21T14:29:04.220Z,101743.56
2022-10-21T14:31:31.210Z,101728.56
2022-10-21T14:33:58.287Z,101733.00
2022-10-21T14:36:27.855Z,101737.41
2022-10-21T14:38:59.224Z,101725.97
2022-10-21T14:41:34.973Z,101733.91
2022-10-21T14:44:16.251Z,101736.53
2022-10-21T14:46:45.976Z,101740.91
2022-10-21T14:49:22.553Z,101738.31
2022-10-21T14:51:50.595Z,101731.28
2022-10-21T14:54:36.133Z,101734.75
2022-10-21T14:57:04.620Z,101727.69
2022-10-21T14:59:39.525Z,101734.75
2022-10-21T15:02:20.890Z,101732.06
2022-10-21T15:05:00.224Z,101740.91
2022-10-21T15:07:29.227Z,101740.84
2022-10-21T15:10:02.123Z,101740.84
2022-10-21T15:12:52.813Z,101742.59
2022-10-21T15:15:39.782Z,101740.78
2022-10-21T15:18:20.701Z,101739.88
2022-10-21T15:20:56.652Z,101742.53
2022-10-21T15:23:34.313Z,101749.59
2022-10-21T15:26:34.220Z,101749.53
2022-10-21T15:29:11.790Z,101741.56
2022-10-21T15:31:38.773Z,101751.22
2022-10-21T15:34:07.151Z,101745.09
2022-10-21T15:36:37.452Z,101756.53
2022-10-21T15:39:06.872Z,101758.34
2022-10-21T15:41:36.447Z,101754.81
2022-10-21T15:44:16.207Z,101756.59
2022-10-21T15:46:46.931Z,101760.25
2022-10-21T15:49:19.876Z,101769.84
2022-10-21T15:51:48.062Z,101759.34
2022-10-21T15:54:16.888Z,101761.16
2022-10-21T15:56:45.535Z,101763.81
2022-10-21T15:59:24.570Z,101761.16
2022-10-21T16:01:52.072Z,101762.06
2022-10-21T16:04:19.868Z,101767.34
2022-10-21T16:06:50.094Z,101763.84
2022-10-21T16:09:27.935Z,101767.34
2022-10-21T16:12:00.773Z,101765.59
2022-10-21T16:14:30.677Z,101769.97
2022-10-21T16:16:59.155Z,101768.28
2022-10-21T16:19:26.553Z,101767.38
2022-10-21T16:21:53.665Z,101769.94
2022-10-21T16:24:20.749Z,101773.53
2022-10-21T16:26:49.557Z,101775.34
2022-10-21T16:29:24.444Z,101769.13
2022-10-21T16:31:52.137Z,101785.06
2022-10-21T16:34:20.050Z,101781.38
2022-10-21T16:36:47.008Z,101785.81
2022-10-21T16:39:17.145Z,101777.94
2022-10-21T16:41:44.123Z,101781.50
2022-10-21T16:44:11.111Z,101785.81
2022-10-21T16:46:51.159Z,101780.56
2022-10-21T16:49:28.335Z,101782.31
2022-10-21T16:51:57.625Z,101786.72
2022-10-21T16:54:24.598Z,101775.22
2022-10-21T16:56:54.776Z,101785.66
2022-10-21T16:59:23.327Z,101781.41
2022-10-21T17:01:50.413Z,101786.69
2022-10-21T17:04:18.072Z,101782.31
2022-10-21T17:06:44.971Z,101780.56
2022-10-21T17:09:11.972Z,101782.31
2022-10-21T17:11:40.995Z,101781.44
2022-10-21T17:14:14.684Z,101784.97
2022-10-21T17:16:41.553Z,101782.31
2022-10-21T17:19:08.410Z,101786.69
2022-10-21T17:21:35.351Z,101790.22
2022-10-21T17:24:03.988Z,101793.75
2022-10-21T17:26:31.372Z,101794.59
2022-10-21T17:28:58.318Z,101799.78
2022-10-21T17:31:27.721Z,101801.50
2022-10-21T17:33:58.584Z,101802.47
2022-10-21T17:36:25.574Z,101799.84
2022-10-21T17:38:52.418Z,101800.72
2022-10-21T17:41:20.573Z,101798.94
2022-10-21T17:43:48.386Z,101806.69
2022-10-21T17:46:25.690Z,101806.50
2022-10-21T17:48:54.726Z,101811.13
2022-10-21T17:51:24.232Z,101805.03
2022-10-21T17:53:52.920Z,101808.50
2022-10-21T17:56:20.813Z,101817.19
2022-10-21T17:58:52.634Z,101815.34
2022-10-21T18:01:20.335Z,101816.91
2022-10-21T18:03:47.597Z,101824.00
2022-10-21T18:06:15.826Z,101824.72
2022-10-21T18:08:43.624Z,101829.06
2022-10-21T18:11:13.162Z,101822.16
2022-10-21T18:13:41.006Z,101824.00
2022-10-21T18:16:17.534Z,101821.31
2022-10-21T18:18:45.726Z,101819.22
2022-10-21T18:21:19.372Z,101823.59
2022-10-21T18:23:48.952Z,101816.69
2022-10-21T18:26:19.621Z,101819.34
2022-10-21T18:28:51.444Z,101815.94
2022-10-21T18:31:23.747Z,101822.34
2022-10-21T18:33:54.184Z,101815.25
2022-10-21T18:36:22.173Z,101817.94
2022-10-21T18:38:49.291Z,101820.53
2022-10-21T18:41:20.621Z,101820.63
2022-10-21T18:43:50.858Z,101819.66
2022-10-21T18:46:18.588Z,101825.81
2022-10-21T18:48:45.852Z,101819.69
2022-10-21T18:51:15.679Z,101823.19
2022-10-21T18:53:46.080Z,101815.16
2022-10-21T18:56:16.998Z,101827.63
2022-10-21T18:58:44.523Z,101820.56
2022-10-21T19:01:12.617Z,101826.41
2022-10-21T19:03:39.972Z,101820.81
2022-10-21T19:06:29.819Z,101822.72
2022-10-21T19:08:56.842Z,101829.88
2022-10-21T19:11:24.054Z,101830.63
2022-10-21T19:13:50.911Z,101827.72
2022-10-21T19:16:17.805Z,101825.28
2022-10-21T19:18:44.766Z,101819.94
2022-10-21T19:21:13.118Z,101826.38
2022-10-21T19:23:40.079Z,101832.63
2022-10-21T19:26:08.902Z,101826.44
2022-10-21T19:28:36.706Z,101826.41
2022-10-21T19:31:03.923Z,101830.09
2022-10-21T19:33:31.201Z,101830.94
2022-10-21T19:36:02.638Z,101823.09
2022-10-21T19:38:43.781Z,101825.66
2022-10-21T19:41:15.900Z,101824.91
2022-10-21T19:43:43.461Z,101823.06
2022-10-21T19:46:14.685Z,101826.66
2022-10-21T19:48:41.558Z,101824.94
2022-10-21T19:51:15.763Z,101819.69
2022-10-21T19:53:45.283Z,101814.16
2022-10-21T19:56:13.237Z,101819.25
2022-10-21T19:58:41.254Z,101817.56
2022-10-21T20:01:11.970Z,101817.41
2022-10-21T20:03:41.024Z,101816.81
2022-10-21T20:06:09.956Z,101813.41
2022-10-21T20:08:40.065Z,101814.41
2022-10-21T20:11:27.279Z,101814.47
2022-10-21T20:13:54.823Z,101815.28
2022-10-21T20:16:24.012Z,101810.47
2022-10-21T20:18:51.049Z,101819.38
2022-10-21T20:21:18.312Z,101812.25
2022-10-21T20:23:45.260Z,101812.03
2022-10-21T20:26:12.541Z,101817.31
2022-10-21T20:28:39.485Z,101817.88
2022-10-21T20:31:09.087Z,101812.09
2022-10-21T20:33:41.639Z,101809.97
2022-10-21T20:36:12.673Z,101815.09
2022-10-21T20:38:39.923Z,101811.00
2022-10-21T20:41:09.745Z,101812.66
2022-10-21T20:43:38.747Z,101813.25
2022-10-21T20:46:08.998Z,101808.53
2022-10-21T20:48:36.985Z,101802.41
2022-10-21T20:51:12.154Z,101797.75
2022-10-21T20:53:40.413Z,101805.34
2022-10-21T20:56:07.611Z,101797.63
2022-10-21T20:58:36.386Z,101799.34
2022-10-21T21:01:11.973Z,101793.09
2022-10-21T21:03:41.886Z,101791.53
2022-10-21T21:06:10.250Z,101788.97
2022-10-21T21:08:44.597Z,101792.63
2022-10-21T21:11:16.424Z,101788.16
2022-10-21T21:13:44.769Z,101786.19
2022-10-21T21:16:19.912Z,101785.22
2022-10-21T21:18:57.431Z,101781.81
2022-10-21T21:21:26.979Z,101785.13
2022-10-21T21:23:54.862Z,101772.84
2022-10-21T21:26:27.560Z,101767.00
2022-10-21T21:28:55.006Z,101773.09
2022-10-21T21:31:24.280Z,101769.50
2022-10-21T21:33:51.438Z,101761.53
2022-10-21T21:36:19.991Z,101778.19
2022-10-21T21:38:47.549Z,101764.06
2022-10-21T21:41:16.775Z,101761.41
2022-10-21T21:43:46.024Z,101766.63
2022-10-21T21:46:13.001Z,101759.50
2022-10-21T21:48:40.550Z,101761.34
2022-10-21T21:51:12.782Z,101752.81
2022-10-21T21:53:39.671Z,101752.09
2022-10-21T21:56:10.146Z,101745.09
2022-10-21T21:58:38.380Z,101745.19
2022-10-21T22:01:14.281Z,101743.97
2022-10-21T22:03:41.487Z,101751.84
2022-10-21T22:06:08.912Z,101746.81
2022-10-21T22:08:39.394Z,101737.00
2022-10-21T22:11:08.984Z,101737.81
2022-10-21T22:13:36.939Z,101734.56
2022-10-21T22:16:04.422Z,101738.16
2022-10-21T22:18:31.432Z,101733.44
2022-10-21T22:21:00.437Z,101735.94
2022-10-21T22:23:28.084Z,101728.00
2022-10-21T22:25:57.004Z,101737.72
2022-10-21T22:28:24.460Z,101730.69
2022-10-21T22:31:03.508Z,101731.44
2022-10-21T22:33:31.393Z,101719.44
2022-10-21T22:35:58.721Z,101721.09
2022-10-21T22:38:25.697Z,101714.97
2022-10-21T22:40:54.446Z,101722.13
2022-10-21T22:43:22.075Z,101720.44
2022-10-21T22:45:49.235Z,101725.78
2022-10-21T22:48:16.751Z,101717.88
2022-10-21T22:50:44.037Z,101722.41
2022-10-21T22:53:11.312Z,101718.00
2022-10-21T22:55:39.413Z,101710.09
2022-10-21T22:58:06.721Z,101711.78
2022-10-21T23:00:33.751Z,101704.56
2022-10-21T23:03:00.687Z,101710.84
2022-10-21T23:05:27.568Z,101712.53
2022-10-21T23:07:54.417Z,101709.09
2022-10-21T23:10:21.361Z,101710.03
2022-10-21T23:12:48.386Z,101708.22
2022-10-21T23:15:15.278Z,101715.44
2022-10-21T23:17:42.158Z,101713.41
2022-10-21T23:20:09.608Z,101706.41
2022-10-21T23:22:36.483Z,101712.69
2022-10-21T23:25:03.505Z,101715.97
2022-10-21T23:27:30.447Z,101719.06
2022-10-21T23:29:57.362Z,101724.84
2022-10-21T23:32:24.355Z,101723.06
2022-10-21T23:34:51.234Z,101723.13
2022-10-21T23:37:18.107Z,101725.03
2022-10-21T23:39:44.949Z,101717.31
2022-10-21T23:42:11.857Z,101724.41
2022-10-21T23:44:38.706Z,101720.44
2022-10-21T23:47:05.608Z,101719.44
2022-10-21T23:49:32.516Z,101719.56
2022-10-21T23:51:59.494Z,101719.50
2022-10-21T23:54:26.370Z,101715.69
2022-10-21T23:56:53.260Z,101721.03
2022-10-21T23:59:22.122Z,101717.53
